Time;durP1;ratioP1;P1;durP2;ratioP2;P2;SDS_P1;SDS_P2;PMS_P1;PMS_P2;Temp;Humidity;BMP_temperature;BMP_pressure;BME280_temperature;BME280_humidity;BME280_pressure;Samples;Min_cycle;Max_cycle;Signal;HPM_P1;HPM_P2
2021/04/16 00:01:18;;;;;;;12.98;9.45;;;;;;;4.46;71.98;97077.41;5003324;28;20474;-70
2021/04/16 00:03:43;;;;;;;12.65;9.02;;;;;;;4.63;71.76;97110.22;5003833;28;20523;-70
2021/04/16 00:06:09;;;;;;;21.90;12.00;;;;;;;5.08;72.69;97175.53;5003302;28;20057;-71
2021/04/16 00:08:35;;;;;;;23.05;12.40;;;;;;;4.81;72.59;97148.53;5006339;28;20026;-70
2021/04/16 00:11:08;;;;;;;17.98;10.65;;;;;;;4.39;72.74;97107.25;5007026;28;20053;-69
2021/04/16 00:13:34;;;;;;;17.17;10.45;;;;;;;3.80;73.14;97039.78;5007236;28;20044;-70
2021/04/16 00:15:59;;;;;;;21.45;10.65;;;;;;;4.68;73.03;97178.63;5006546;28;20042;-69
2021/04/16 00:18:28;;;;;;;16.75;9.52;;;;;;;3.36;74.16;96990.94;5007065;28;20444;-69
2021/04/16 00:20:56;;;;;;;13.27;7.93;;;;;;;3.86;74.70;97117.91;5004441;28;20523;-70
2021/04/16 00:23:21;;;;;;;13.27;8.63;;;;;;;4.34;75.41;97169.72;5007022;28;20045;-69
2021/04/16 00:25:48;;;;;;;15.10;8.77;;;;;;;4.39;75.40;97184.03;5006582;28;20041;-70
2021/04/16 00:28:14;;;;;;;14.15;7.97;;;;;;;3.72;74.71;97078.97;5006813;28;20116;-70
2021/04/16 00:30:44;;;;;;;13.88;8.05;;;;;;;4.40;74.60;97177.44;5005760;28;20108;-70
2021/04/16 00:33:10;;;;;;;13.38;8.10;;;;;;;4.42;74.36;97177.13;5006589;28;20057;-69
2021/04/16 00:35:36;;;;;;;12.98;7.85;;;;;;;4.43;73.13;97182.28;5004264;28;20046;-68
2021/04/16 00:38:03;;;;;;;18.40;11.68;;;;;;;3.95;72.84;97126.91;5006530;28;20072;-68
2021/04/16 00:40:33;;;;;;;18.13;8.00;;;;;;;4.22;73.88;97186.06;5006095;28;20038;-70
2021/04/16 00:43:00;;;;;;;16.70;9.52;;;;;;;3.58;74.99;97094.78;5025992;28;20057;-70
2021/04/16 00:45:29;;;;;;;12.20;8.73;;;;;;;4.19;76.50;97200.38;5025548;28;20034;-70
2021/04/16 00:48:00;;;;;;;12.38;8.77;;;;;;;4.16;75.94;97207.34;5024725;28;20120;-71
2021/04/16 00:50:31;;;;;;;27.85;11.43;;;;;;;4.24;76.06;97192.81;5023822;28;20132;-70
2021/04/16 00:52:59;;;;;;;21.98;11.50;;;;;;;3.64;75.63;97103.59;5026242;28;20556;-70
2021/04/16 00:55:25;;;;;;;21.92;11.20;;;;;;;4.02;75.06;97142.88;5025531;28;20041;-67
2021/04/16 00:57:51;;;;;;;19.05;9.77;;;;;;;4.30;74.87;97194.25;5041182;28;20503;-69
2021/04/16 01:00:18;;;;;;;15.07;9.65;;;;;;;4.07;76.19;97190.09;5023722;28;20045;-69
2021/04/16 01:02:43;;;;;;;19.15;11.73;;;;;;;4.00;76.51;97184.31;5025715;28;20037;-69
2021/04/16 01:05:10;;;;;;;14.48;9.30;;;;;;;3.95;76.67;97187.19;5025255;28;20064;-69
2021/04/16 01:07:36;;;;;;;12.65;8.80;;;;;;;3.59;76.70;97131.97;5025532;28;20216;-69
2021/04/16 01:10:03;;;;;;;14.35;8.88;;;;;;;4.04;76.02;97196.25;5024240;28;20116;-69
2021/04/16 01:12:28;;;;;;;18.67;10.25;;;;;;;3.94;75.76;97199.31;5023795;28;20459;-69
2021/04/16 01:15:03;;;;;;;15.20;9.30;;;;;;;3.89;76.48;97199.47;5025800;28;20025;-69
2021/04/16 01:17:29;;;;;;;14.60;8.93;;;;;;;3.82;76.23;97198.34;5024934;28;20071;-68
2021/04/16 01:20:18;;;;;;;19.60;9.90;;;;;;;3.75;77.16;97204.31;5039714;28;20350;-69
2021/04/16 01:23:32;;;;;;;16.10;9.45;;;;;;;3.54;78.60;97202.53;5024103;28;20037;-69
2021/04/16 01:25:58;;;;;;;17.08;9.60;;;;;;;3.53;79.21;97199.00;5019797;28;20049;-69
2021/04/16 01:28:25;;;;;;;23.33;13.48;;;;;;;3.65;79.30;97206.56;5025283;28;20033;-69
2021/04/16 01:31:00;;;;;;;26.60;13.13;;;;;;;3.55;77.43;97183.06;5024898;28;20068;-69
2021/04/16 01:33:28;;;;;;;23.42;11.68;;;;;;;3.68;77.12;97206.75;5025953;28;20044;-68
2021/04/16 01:35:54;;;;;;;22.85;12.05;;;;;;;3.52;77.84;97215.75;5023113;28;20561;-69
2021/04/16 01:38:20;;;;;;;17.98;9.82;;;;;;;2.54;78.96;97100.50;5023654;28;20116;-69
2021/04/16 01:40:46;;;;;;;20.67;10.40;;;;;;;3.14;79.10;97212.78;5023004;28;20090;-70
2021/04/16 01:43:18;;;;;;;23.17;11.32;;;;;;;3.10;80.04;97204.41;5005402;28;20472;-70
2021/04/16 01:45:43;;;;;;;25.00;12.35;;;;;;;2.54;79.62;97132.47;5003486;28;20046;-70
2021/04/16 01:48:09;;;;;;;20.08;10.32;;;;;;;2.97;80.03;97204.53;5005726;28;20037;-70
2021/04/16 01:50:34;;;;;;;17.20;8.93;;;;;;;2.74;80.66;97173.72;5005296;28;20037;-69
2021/04/16 01:53:00;;;;;;;18.40;10.20;;;;;;;2.81;81.17;97178.75;5005362;28;20036;-70
2021/04/16 01:55:26;;;;;;;18.70;10.27;;;;;;;2.37;81.08;97135.16;5004468;28;20425;-70
2021/04/16 01:57:51;;;;;;;19.88;10.75;;;;;;;1.17;80.86;96959.81;5004453;28;20030;-70
2021/04/16 02:00:25;;;;;;;18.80;9.15;;;;;;;1.90;80.70;97075.81;5004750;28;20108;-70
2021/04/16 02:02:50;;;;;;;14.07;8.30;;;;;;;2.17;81.43;97152.91;5019946;28;20034;-69
2021/04/16 02:05:16;;;;;;;18.65;9.80;;;;;;;2.81;80.23;97189.69;5004108;28;20052;-68
2021/04/16 02:07:42;;;;;;;18.05;9.75;;;;;;;2.82;80.27;97191.28;5003652;28;20083;-68
2021/04/16 02:10:09;;;;;;;18.92;8.50;;;;;;;2.76;80.38;97192.56;5004819;28;20077;-68
2021/04/16 02:12:34;;;;;;;14.68;7.90;;;;;;;2.68;80.45;97212.47;5019753;28;20026;-69
2021/04/16 02:15:00;;;;;;;16.30;8.85;;;;;;;2.66;80.60;97214.69;5004434;28;20095;-68
2021/04/16 02:17:27;;;;;;;14.45;7.53;;;;;;;2.07;80.87;97116.88;5002505;28;20030;-69
2021/04/16 02:19:54;;;;;;;14.65;8.77;;;;;;;2.70;79.92;97216.47;5019322;28;20037;-67
2021/04/16 02:22:22;;;;;;;16.27;9.25;;;;;;;2.91;80.08;97223.00;5019055;28;20416;-67
2021/04/16 02:24:48;;;;;;;12.10;9.00;;;;;;;2.99;79.45;97216.75;5004805;28;20040;-67
2021/04/16 02:27:15;;;;;;;12.50;7.60;;;;;;;3.04;76.59;97226.75;5003929;28;20034;-66
2021/04/16 02:29:41;;;;;;;19.80;10.35;;;;;;;0.63;77.20;96883.81;5019284;28;20037;-67
2021/04/16 02:32:07;;;;;;;15.05;8.32;;;;;;;2.57;80.35;97233.00;5002325;28;20049;-67
2021/04/16 02:34:33;;;;;;;13.70;7.93;;;;;;;1.96;80.96;97134.63;5004017;28;20477;-67
2021/04/16 02:37:02;;;;;;;15.75;8.38;;;;;;;2.56;80.92;97242.34;5004209;28;20042;-67
2021/04/16 02:39:28;;;;;;;13.63;8.00;;;;;;;2.61;80.80;97261.31;5004859;28;20433;-69
2021/04/16 02:41:54;;;;;;;16.98;8.43;;;;;;;2.59;81.56;97238.97;5014873;28;20123;-68
2021/04/16 02:44:21;;;;;;;15.13;8.38;;;;;;;2.54;81.71;97233.63;5023809;28;20148;-69
2021/04/16 02:46:47;;;;;;;12.43;7.93;;;;;;;2.55;81.52;97237.97;5021905;28;20450;-69
2021/04/16 02:49:13;;;;;;;17.35;8.00;;;;;;;2.49;81.75;97252.91;5023590;28;20108;-69
2021/04/16 02:51:39;;;;;;;14.90;8.00;;;;;;;1.79;81.39;97121.69;5021492;28;20184;-69
2021/04/16 02:54:05;;;;;;;15.57;8.30;;;;;;;2.57;81.94;97252.16;5024169;28;20030;-69
2021/04/16 02:56:30;;;;;;;87.43;36.90;;;;;;;2.67;82.02;97243.69;5021674;28;20041;-69
2021/04/16 02:58:57;;;;;;;97.07;39.75;;;;;;;2.60;82.72;97215.97;5023756;28;20037;-69
2021/04/16 03:01:24;;;;;;;36.65;18.38;;;;;;;2.55;83.31;97240.72;5023244;28;20045;-69
2021/04/16 03:03:49;;;;;;;35.05;16.58;;;;;;;1.87;83.08;97133.75;5023282;28;20079;-69
2021/04/16 03:06:15;;;;;;;29.35;14.93;;;;;;;2.66;82.35;97231.09;5022902;28;20132;-69
2021/04/16 03:08:40;;;;;;;35.85;14.85;;;;;;;1.85;81.91;97105.97;5023545;28;20128;-70
2021/04/16 03:11:08;;;;;;;24.10;13.10;;;;;;;2.62;80.83;97246.53;5023428;28;20563;-70
2021/04/16 03:13:34;;;;;;;25.48;12.00;;;;;;;2.19;80.49;97188.09;5023446;28;20048;-71
2021/04/16 03:16:00;;;;;;;20.90;11.48;;;;;;;2.53;81.61;97237.50;5023325;28;20532;-69
2021/04/16 03:18:26;;;;;;;21.15;10.10;;;;;;;1.80;81.18;97130.69;5022143;28;20030;-67
2021/04/16 03:20:52;;;;;;;20.05;11.82;;;;;;;1.90;81.08;97168.66;5022778;28;20412;-67
2021/04/16 03:23:17;;;;;;;24.20;12.27;;;;;;;2.69;79.00;97263.28;5023646;28;20045;-68
2021/04/16 03:25:43;;;;;;;22.27;11.10;;;;;;;2.70;77.77;97254.00;5023098;28;20041;-68
2021/04/16 03:28:09;;;;;;;23.92;11.48;;;;;;;2.07;79.02;97231.59;5022403;28;20102;-67
2021/04/16 03:30:35;;;;;;;29.08;13.27;;;;;;;1.78;80.02;97193.78;5023029;28;20037;-68
2021/04/16 03:33:00;;;;;;;28.40;14.57;;;;;;;2.32;79.57;97263.75;5021911;28;20404;-67
2021/04/16 03:35:26;;;;;;;51.28;22.60;;;;;;;2.14;81.17;97230.03;5023144;28;20095;-68
2021/04/16 03:37:52;;;;;;;62.25;27.35;;;;;;;1.98;79.42;97193.28;5023408;28;20542;-68
2021/04/16 03:40:22;;;;;;;49.42;23.60;;;;;;;2.13;78.60;97216.69;5021444;28;20045;-66
2021/04/16 03:42:47;;;;;;;41.80;19.35;;;;;;;2.40;79.37;97282.91;5038213;28;20440;-68
2021/04/16 03:45:14;;;;;;;23.20;11.38;;;;;;;2.36;80.22;97281.13;5032019;28;20049;-68
2021/04/16 03:47:45;;;;;;;29.70;14.13;;;;;;;2.47;79.24;97282.47;5027237;28;20052;-67
2021/04/16 03:50:12;;;;;;;36.35;18.80;;;;;;;2.52;78.74;97277.69;5026699;28;20101;-67
2021/04/16 03:52:38;;;;;;;33.97;15.30;;;;;;;2.49;79.39;97274.78;5027425;28;20085;-68
2021/04/16 03:55:04;;;;;;;29.13;15.40;;;;;;;2.52;79.75;97291.38;5025501;28;20758;-68
2021/04/16 03:57:30;;;;;;;40.40;17.45;;;;;;;2.19;78.18;97270.06;5025427;28;20033;-68
2021/04/16 03:59:57;;;;;;;36.08;17.20;;;;;;;2.55;78.22;97277.06;5025172;28;20030;-68
2021/04/16 04:02:23;;;;;;;52.30;22.92;;;;;;;2.59;79.53;97280.00;5041299;28;20033;-66
2021/04/16 04:04:49;;;;;;;77.60;34.20;;;;;;;2.43;78.94;97265.09;5026494;28;20108;-67
2021/04/16 04:07:14;;;;;;;67.35;30.23;;;;;;;2.48;79.24;97303.25;5026189;28;20088;-67
2021/04/16 04:09:40;;;;;;;53.13;26.27;;;;;;;2.56;79.43;97297.03;5025296;28;20030;-67
2021/04/16 04:12:06;;;;;;;38.85;20.75;;;;;;;2.74;79.09;97276.84;5026338;28;20447;-67
2021/04/16 04:14:31;;;;;;;36.03;19.00;;;;;;;2.81;77.70;97280.72;5041778;28;20544;-67
2021/04/16 04:17:03;;;;;;;32.53;16.27;;;;;;;2.21;78.80;97213.19;5026420;28;20098;-67
2021/04/16 04:19:30;;;;;;;34.58;17.73;;;;;;;2.79;78.18;97284.91;5026837;28;20511;-68
2021/04/16 04:21:58;;;;;;;37.08;17.50;;;;;;;2.99;77.17;97273.41;5026156;28;20044;-68
2021/04/16 04:24:24;;;;;;;32.30;16.55;;;;;;;2.93;77.27;97255.53;5024773;28;20033;-67
2021/04/16 04:26:50;;;;;;;39.25;20.13;;;;;;;3.18;77.50;97309.53;5025834;28;20680;-67
2021/04/16 04:29:18;;;;;;;42.42;24.58;;;;;;;2.77;76.15;97227.78;5041529;28;20025;-68
2021/04/16 04:31:47;;;;;;;39.97;21.05;;;;;;;2.36;76.00;97128.06;5026269;28;20060;-68
2021/04/16 04:34:20;;;;;;;36.30;20.40;;;;;;;3.53;75.21;97283.88;5024578;28;20033;-68
2021/04/16 04:36:47;;;;;;;26.45;16.80;;;;;;;3.63;74.46;97289.06;5025876;28;20041;-67
2021/04/16 04:39:13;;;;;;;30.73;14.38;;;;;;;2.64;74.67;97129.47;5025926;28;20470;-68
2021/04/16 04:41:40;;;;;;;32.17;13.55;;;;;;;3.64;74.49;97296.13;5025468;28;20045;-68
2021/04/16 04:44:06;;;;;;;25.52;13.23;;;;;;;3.76;74.14;97299.03;5024505;28;20135;-67
2021/04/16 04:46:31;;;;;;;23.95;12.70;;;;;;;4.01;72.48;97295.56;5025927;28;20132;-68
2021/04/16 04:48:56;;;;;;;23.40;13.38;;;;;;;3.77;71.60;97270.53;5025108;28;20036;-67
2021/04/16 04:51:22;;;;;;;23.13;13.70;;;;;;;4.21;73.07;97311.34;5025829;28;20039;-71
2021/04/16 04:53:47;;;;;;;21.40;12.00;;;;;;;4.33;69.72;97297.78;5024982;28;20083;-70
2021/04/16 04:56:13;;;;;;;18.17;12.10;;;;;;;3.83;67.97;97197.22;5025847;28;20111;-72
2021/04/16 04:58:38;;;;;;;17.50;11.88;;;;;;;3.90;67.90;97173.69;5025892;28;20033;-71
2021/04/16 05:01:04;;;;;;;15.57;8.45;;;;;;;4.66;69.21;97304.34;5023556;28;20091;-71
2021/04/16 05:03:29;;;;;;;15.35;9.25;;;;;;;4.75;67.55;97298.84;5025616;28;20074;-70
2021/04/16 05:05:54;;;;;;;15.30;9.55;;;;;;;4.62;66.16;97251.28;5025250;28;20473;-71
2021/04/16 05:08:20;;;;;;;18.27;10.15;;;;;;;5.07;66.82;97306.50;5025497;28;20117;-71
2021/04/16 05:10:45;;;;;;;26.15;15.50;;;;;;;5.24;65.20;97300.13;5025424;28;20416;-71
2021/04/16 05:13:11;;;;;;;40.08;18.77;;;;;;;4.85;66.36;97210.69;5024265;28;20488;-72
2021/04/16 05:15:36;;;;;;;55.25;25.85;;;;;;;4.93;64.58;97228.25;5025124;28;20512;-71
2021/04/16 05:18:02;;;;;;;47.13;26.20;;;;;;;5.49;64.01;97290.97;5024143;28;20078;-70
2021/04/16 05:20:27;;;;;;;60.72;28.17;;;;;;;5.68;64.72;97299.56;5024562;28;20034;-72
2021/04/16 05:22:52;;;;;;;50.60;23.83;;;;;;;5.67;64.19;97286.97;5023771;28;20102;-70
2021/04/16 05:25:18;;;;;;;41.67;21.67;;;;;;;5.81;64.16;97304.03;5024936;28;20049;-71
2021/04/16 05:27:44;;;;;;;22.27;12.07;;;;;;;6.05;63.06;97301.47;5025674;28;20036;-71
2021/04/16 05:30:11;;;;;;;23.45;12.80;;;;;;;5.36;63.12;97226.88;5024128;28;20034;-69
2021/04/16 05:32:36;;;;;;;31.48;13.50;;;;;;;4.08;63.05;97005.34;5017239;28;20029;-67
2021/04/16 05:35:03;;;;;;;17.58;10.35;;;;;;;6.28;61.99;97305.50;5022928;28;20034;-69
2021/04/16 05:37:29;;;;;;;20.10;10.90;;;;;;;5.16;60.14;97128.81;5024680;28;20091;-66
2021/04/16 05:39:54;;;;;;;21.48;10.55;;;;;;;6.62;59.23;97312.63;5022791;28;20033;-66
2021/04/16 05:42:20;;;;;;;16.67;10.25;;;;;;;5.64;59.17;97144.78;5023478;28;20037;-67
2021/04/16 05:44:46;;;;;;;36.38;15.40;;;;;;;6.90;58.03;97300.69;5024339;28;20490;-70
2021/04/16 05:47:11;;;;;;;32.45;16.77;;;;;;;6.32;58.30;97215.66;5023985;28;20033;-64
2021/04/16 05:49:37;;;;;;;40.47;21.00;;;;;;;6.38;58.17;97158.47;5024078;28;20025;-65
2021/04/16 05:52:03;;;;;;;43.83;24.00;;;;;;;7.38;57.20;97286.97;5038648;28;20239;-64
2021/04/16 05:54:28;;;;;;;39.10;21.05;;;;;;;7.07;57.02;97204.09;5024691;28;20151;-65
2021/04/16 05:56:53;;;;;;;35.55;18.75;;;;;;;7.87;55.56;97275.94;5022418;28;20037;-66
2021/04/16 05:59:19;;;;;;;42.33;23.95;;;;;;;7.50;54.63;97244.84;5023139;28;20033;-67
2021/04/16 06:01:44;;;;;;;54.20;25.90;;;;;;;7.90;53.59;97233.88;5023705;28;20061;-65
2021/04/16 06:04:18;;;;;;;44.30;21.27;;;;;;;8.07;52.21;97241.88;5024672;28;20140;-65
2021/04/16 06:06:44;;;;;;;29.50;16.08;;;;;;;8.37;50.88;97296.44;5021896;28;20088;-68
2021/04/16 06:09:09;;;;;;;25.50;15.55;;;;;;;7.66;50.90;97177.66;5023171;28;20029;-67
2021/04/16 06:11:35;;;;;;;25.45;14.88;;;;;;;8.62;50.57;97281.38;5013966;28;20041;-65
2021/04/16 06:14:00;;;;;;;29.20;14.88;;;;;;;8.64;50.19;97273.56;5013909;28;20065;-60
2021/04/16 06:16:26;;;;;;;28.27;16.13;;;;;;;8.11;49.11;97187.63;5023297;28;20033;-64
2021/04/16 06:18:51;;;;;;;170.38;68.15;;;;;;;9.07;48.99;97276.31;5022656;28;20071;-65
2021/04/16 06:21:17;;;;;;;37.67;18.85;;;;;;;8.60;48.43;97217.44;5028575;28;20192;-68
2021/04/16 06:23:43;;;;;;;25.52;14.30;;;;;;;7.43;47.28;96969.84;5023900;28;20041;-63
2021/04/16 06:26:08;;;;;;;14.52;8.75;;;;;;;8.74;46.01;97162.56;5022629;28;20033;-65
2021/04/16 06:28:34;;;;;;;14.90;10.73;;;;;;;9.68;45.73;97279.44;5024152;28;20111;-65
2021/04/16 06:31:00;;;;;;;21.85;11.60;;;;;;;8.78;48.32;97157.13;5023607;28;20037;-64
2021/04/16 06:33:34;;;;;;;19.17;10.82;;;;;;;9.57;48.35;97231.38;5022907;28;20021;-66
2021/04/16 06:36:03;;;;;;;18.45;10.95;;;;;;;9.94;48.31;97287.16;5023483;28;20041;-64
2021/04/16 06:38:32;;;;;;;16.13;9.93;;;;;;;7.47;48.11;96870.75;5024195;28;20036;-64
2021/04/16 06:41:00;;;;;;;14.60;8.73;;;;;;;9.24;47.22;97219.91;5023380;28;20079;-65
2021/04/16 06:43:37;;;;;;;15.55;9.65;;;;;;;9.71;47.67;97278.72;5022619;28;20053;-65
2021/04/16 06:46:09;;;;;;;17.65;9.52;;;;;;;10.11;47.82;97282.06;5023571;28;20084;-64
2021/04/16 06:48:34;;;;;;;18.80;11.38;;;;;;;8.88;47.18;97217.38;5023708;28;20492;-64
2021/04/16 06:51:01;;;;;;;20.83;11.65;;;;;;;9.25;46.38;97215.97;5023006;28;20040;-65
2021/04/16 06:53:34;;;;;;;11.23;8.07;;;;;;;9.26;46.36;97189.13;5022396;28;20045;-62
2021/04/16 06:56:04;;;;;;;8.95;6.30;;;;;;;9.84;42.54;97296.81;5038331;28;20505;-63
2021/04/16 06:58:42;;;;;;;11.70;6.40;;;;;;;9.93;43.25;97291.88;5023915;28;20043;-64
2021/04/16 07:01:20;;;;;;;8.48;5.68;;;;;;;10.20;43.19;97274.34;5023194;28;20896;-64
2021/04/16 07:04:10;;;;;;;7.95;5.97;;;;;;;10.28;43.36;97292.72;5038579;28;20469;-64
2021/04/16 07:06:38;;;;;;;6.57;5.30;;;;;;;9.32;42.66;97299.06;5021645;28;20448;-65
2021/04/16 07:09:10;;;;;;;9.23;5.45;;;;;;;9.25;43.16;97246.34;5038514;28;20087;-64
2021/04/16 07:11:42;;;;;;;8.57;6.03;;;;;;;9.58;43.14;97257.84;5023221;28;20045;-64
2021/04/16 07:14:25;;;;;;;7.38;5.57;;;;;;;10.13;42.47;97296.31;5021902;28;20029;-64
2021/04/16 07:16:51;;;;;;;10.13;5.18;;;;;;;10.14;40.65;97275.00;5022464;28;20061;-64
2021/04/16 07:19:21;;;;;;;9.00;5.43;;;;;;;10.27;41.76;97291.13;5023422;28;20116;-64
2021/04/16 07:21:47;;;;;;;7.57;5.47;;;;;;;9.67;43.06;97288.91;5021459;28;20629;-65
2021/04/16 07:24:15;;;;;;;8.23;5.60;;;;;;;9.72;41.64;97285.84;5023189;28;20114;-64
2021/04/16 07:26:51;;;;;;;10.38;4.93;;;;;;;9.78;40.41;97289.97;5022581;28;20030;-64
2021/04/16 07:29:43;;;;;;;4.93;3.88;;;;;;;9.40;39.94;97298.09;5023310;28;20098;-64
2021/04/16 07:32:30;;;;;;;6.70;3.85;;;;;;;9.11;39.59;97295.75;5022972;28;20034;-64
2021/04/16 07:35:15;;;;;;;7.55;4.65;;;;;;;9.69;39.73;97300.38;5015344;28;20048;-65
2021/04/16 07:37:44;;;;;;;7.40;4.72;;;;;;;10.08;39.36;97293.88;5021632;28;20508;-66
2021/04/16 07:40:14;;;;;;;9.25;5.78;;;;;;;9.99;38.40;97223.25;5023062;28;20514;-66
2021/04/16 07:42:40;;;;;;;7.40;5.10;;;;;;;10.78;38.29;97282.69;5022033;28;20114;-67
2021/04/16 07:45:12;;;;;;;5.82;4.43;;;;;;;11.10;37.87;97275.78;5022577;28;20471;-68
2021/04/16 07:47:37;;;;;;;4.50;4.10;;;;;;;11.31;36.40;97276.16;5021706;28;20081;-64
2021/04/16 07:50:30;;;;;;;6.38;4.30;;;;;;;10.84;36.23;97286.75;5023387;28;20503;-70
2021/04/16 07:52:56;;;;;;;6.93;4.38;;;;;;;11.09;36.34;97291.63;5023521;28;20517;-63
2021/04/16 07:55:28;;;;;;;8.10;5.63;;;;;;;11.41;37.12;97286.66;5015692;28;20049;-68
2021/04/16 07:58:07;;;;;;;5.13;3.97;;;;;;;11.56;36.64;97267.09;5022374;28;20033;-69
2021/04/16 08:00:36;;;;;;;7.38;4.53;;;;;;;11.69;35.63;97273.28;5020575;28;20086;-62
2021/04/16 08:03:18;;;;;;;6.63;4.88;;;;;;;11.82;34.40;97280.25;5019976;28;20041;-63
2021/04/16 08:05:53;;;;;;;6.78;4.90;;;;;;;11.67;35.41;97236.78;5003571;28;20045;-64
2021/04/16 08:08:21;;;;;;;13.40;6.30;;;;;;;12.16;33.90;97276.38;5022607;28;20031;-66
2021/04/16 08:11:14;;;;;;;13.35;9.00;;;;;;;11.54;34.41;97265.88;5020405;28;20034;-68
2021/04/16 08:13:42;;;;;;;5.75;3.92;;;;;;;11.40;33.46;97276.72;5018570;28;20049;-68
2021/04/16 08:16:16;;;;;;;7.35;4.32;;;;;;;10.25;34.07;97191.03;5019921;28;20038;-69
2021/04/16 08:18:45;;;;;;;8.25;4.18;;;;;;;8.72;34.59;96899.00;5021713;28;20116;-67
2021/04/16 08:21:13;;;;;;;10.23;4.95;;;;;;;11.27;34.43;97273.31;5021557;28;20500;-67
2021/04/16 08:24:05;;;;;;;5.82;3.65;;;;;;;10.60;35.00;97233.28;5020976;28;20048;-68
2021/04/16 08:26:41;;;;;;;6.18;4.25;;;;;;;10.27;35.39;97161.00;5020399;28;20037;-63
2021/04/16 08:29:18;;;;;;;7.82;4.13;;;;;;;10.87;34.68;97211.19;5024441;28;20045;-66
2021/04/16 08:31:54;;;;;;;7.10;4.00;;;;;;;11.76;33.31;97287.28;5025372;28;20122;-69
2021/04/16 08:34:26;;;;;;;4.53;3.50;;;;;;;11.65;34.41;97233.59;5025825;28;20042;-69
2021/04/16 08:36:51;;;;;;;6.35;3.63;;;;;;;11.85;33.05;97273.94;5025181;28;20033;-67
2021/04/16 08:39:34;;;;;;;5.05;3.50;;;;;;;11.88;33.89;97270.44;5023808;28;20045;-63
2021/04/16 08:42:31;;;;;;;5.20;3.40;;;;;;;12.25;33.59;97274.13;5024028;28;20163;-70
2021/04/16 08:45:17;;;;;;;5.53;4.53;;;;;;;10.78;33.22;97116.44;5024216;28;20595;-69
2021/04/16 08:47:55;;;;;;;4.55;3.60;;;;;;;12.07;34.07;97262.00;5025197;28;20045;-67
2021/04/16 08:50:27;;;;;;;5.13;3.85;;;;;;;11.55;34.27;97267.47;5019149;28;20080;-64
2021/04/16 08:52:56;;;;;;;6.88;3.92;;;;;;;11.78;33.00;97232.19;5025014;28;20044;-66
2021/04/16 08:55:22;;;;;;;5.10;3.88;;;;;;;11.61;33.65;97272.34;5022738;28;20057;-66
2021/04/16 08:57:55;;;;;;;7.90;3.95;;;;;;;11.81;33.44;97234.22;5025565;28;20041;-69
2021/04/16 09:00:32;;;;;;;6.05;4.35;;;;;;;11.84;33.64;97195.41;5023467;28;20040;-69
2021/04/16 09:02:59;;;;;;;6.65;4.10;;;;;;;11.54;32.93;97149.38;5038846;28;20041;-65
2021/04/16 09:05:28;;;;;;;6.15;4.30;;;;;;;12.50;33.87;97264.19;5024635;28;20408;-65
2021/04/16 09:08:20;;;;;;;4.63;3.92;;;;;;;11.79;33.29;97120.03;5022902;28;20034;-69
2021/04/16 09:10:57;;;;;;;5.72;4.43;;;;;;;12.64;33.62;97219.91;5005727;28;20084;-67
2021/04/16 09:13:29;;;;;;;7.82;4.45;;;;;;;13.06;33.38;97248.19;5020969;28;20034;-69
2021/04/16 09:16:15;;;;;;;6.80;3.83;;;;;;;13.12;32.44;97241.09;5010941;28;20124;-65
2021/04/16 09:18:42;;;;;;;5.20;3.78;;;;;;;12.86;32.33;97248.72;5020305;28;20033;-68
2021/04/16 09:21:12;;;;;;;6.68;4.45;;;;;;;12.72;32.99;97238.25;5024745;28;20049;-64
2021/04/16 09:23:38;;;;;;;9.18;3.92;;;;;;;12.48;32.28;97244.31;5024272;28;20034;-64
2021/04/16 09:26:04;;;;;;;7.65;4.30;;;;;;;12.69;33.41;97227.09;5024229;28;20100;-70
2021/04/16 09:28:50;;;;;;;5.72;3.53;;;;;;;12.95;31.56;97236.13;5025352;28;20516;-65
2021/04/16 09:31:22;;;;;;;3.92;3.03;;;;;;;13.17;32.27;97231.59;5023735;28;20473;-67
2021/04/16 09:33:48;;;;;;;5.85;3.83;;;;;;;13.46;31.31;97228.72;5040421;28;20449;-67
2021/04/16 09:36:26;;;;;;;4.10;3.80;;;;;;;13.70;31.46;97222.53;5024854;28;20037;-66
2021/04/16 09:38:51;;;;;;;33.55;18.88;;;;;;;13.95;30.13;97221.91;5040065;28;20060;-67
2021/04/16 09:41:21;;;;;;;5.78;4.00;;;;;;;14.06;30.52;97206.06;5022621;28;20552;-67
2021/04/16 09:43:51;;;;;;;10.05;4.72;;;;;;;14.25;30.88;97180.72;5040019;28;20136;-67
2021/04/16 09:46:33;;;;;;;5.85;4.18;;;;;;;14.52;29.03;97184.84;5024740;28;20037;-66
2021/04/16 09:49:02;;;;;;;5.90;3.83;;;;;;;14.24;29.15;97159.63;5025096;28;20030;-67
2021/04/16 09:51:36;;;;;;;6.97;4.63;;;;;;;14.39;29.52;97173.25;5024411;28;20584;-67
2021/04/16 09:54:07;;;;;;;;;;;;;;;14.32;30.50;97169.63;5025642;28;20038;-65
2021/04/16 09:56:33;;;;;;;7.20;5.85;;;;;;;14.25;31.08;97177.94;5024447;28;20034;-64
2021/04/16 09:59:28;;;;;;;8.10;5.22;;;;;;;14.66;30.33;97160.59;5024931;28;20445;-66
2021/04/16 10:02:12;;;;;;;12.50;6.65;;;;;;;14.73;30.72;97168.19;5024328;28;20033;-65
2021/04/16 10:05:27;;;;;;;4.80;4.30;;;;;;;14.74;29.27;97167.00;5039764;28;20409;-67
2021/04/16 10:07:59;;;;;;;5.53;3.72;;;;;;;14.29;29.22;97064.53;5024982;28;20362;-66
2021/04/16 10:10:38;;;;;;;5.47;4.43;;;;;;;14.67;29.80;97147.44;5023852;28;20041;-66
2021/04/16 10:13:03;;;;;;;6.95;4.00;;;;;;;14.98;29.56;97146.72;5024450;28;20068;-66
2021/04/16 10:15:35;;;;;;;5.50;3.97;;;;;;;15.16;28.53;97150.31;5023798;28;20037;-67
2021/04/16 10:18:04;;;;;;;7.63;4.25;;;;;;;14.40;29.12;97031.91;5024695;28;20037;-67
2021/04/16 10:20:32;;;;;;;7.60;4.68;;;;;;;13.99;29.11;97150.34;5023847;28;20037;-67
2021/04/16 10:23:25;;;;;;;6.22;4.30;;;;;;;14.31;30.79;97162.44;5022859;28;20468;-67
2021/04/16 12:37:59;;;;;;;6.72;3.58;;;;;;;14.30;29.43;96882.22;5026687;28;20558;-64
2021/04/16 12:40:26;;;;;;;5.07;3.85;;;;;;;15.09;29.78;97008.03;5023894;28;20041;-67
2021/04/16 12:42:54;;;;;;;4.90;3.67;;;;;;;15.12;29.29;96987.69;5024726;28;20045;-65
2021/04/16 12:45:21;;;;;;;4.10;3.70;;;;;;;14.56;29.39;96957.84;5025221;28;20038;-64
2021/04/16 12:47:46;;;;;;;6.15;3.80;;;;;;;14.37;29.03;96910.09;5025604;28;20568;-64
2021/04/16 12:50:15;;;;;;;5.65;3.67;;;;;;;15.02;29.16;97086.13;5038351;28;20116;-66
2021/04/16 12:52:40;;;;;;;4.32;3.72;;;;;;;15.74;28.88;97043.81;5025779;28;20073;-68
2021/04/16 12:55:07;;;;;;;6.38;4.50;;;;;;;16.12;28.92;97004.50;5024564;28;20615;-68
2021/04/16 12:57:38;;;;;;;10.18;5.07;;;;;;;16.46;29.01;97035.50;5024795;28;20116;-68
2021/04/16 13:00:34;;;;;;;4.70;4.10;;;;;;;16.90;26.89;97034.81;5024468;28;20706;-67
2021/04/16 13:03:07;;;;;;;4.60;3.60;;;;;;;17.09;27.18;97029.44;5020594;28;20049;-69
2021/04/16 13:05:35;;;;;;;5.90;4.00;;;;;;;16.63;27.99;97011.44;5018325;28;20056;-69
2021/04/16 13:08:01;;;;;;;4.32;3.75;;;;;;;17.04;27.47;97043.09;5024811;28;20049;-69
2021/04/16 13:10:26;;;;;;;4.65;3.72;;;;;;;16.55;28.02;97042.25;5024535;28;20124;-68
2021/04/16 13:12:52;;;;;;;5.28;3.78;;;;;;;15.51;28.55;96942.94;5024561;28;20033;-68
2021/04/16 13:15:19;;;;;;;10.85;4.13;;;;;;;15.65;29.24;97041.44;5021403;28;20072;-68
2021/04/16 13:17:52;;;;;;;5.88;3.25;;;;;;;15.20;30.68;97036.72;5022354;28;20463;-64
2021/04/16 13:20:20;;;;;;;4.32;3.65;;;;;;;15.61;29.41;97040.66;5022958;28;20051;-68
2021/04/16 13:22:46;;;;;;;6.03;3.45;;;;;;;15.52;28.24;96925.81;5023689;28;20045;-67
2021/04/16 13:25:14;;;;;;;4.13;3.58;;;;;;;16.78;29.00;97038.09;5024662;28;20044;-71
2021/04/16 13:27:40;;;;;;;5.03;3.75;;;;;;;16.17;29.10;96973.34;5003337;28;20048;-71
2021/04/16 13:30:08;;;;;;;4.97;3.00;;;;;;;15.42;28.19;97006.78;5021768;28;20062;-71
2021/04/16 13:32:43;;;;;;;6.47;3.90;;;;;;;16.54;28.77;97026.69;5024321;28;20041;-73
2021/04/16 13:35:12;;;;;;;5.13;3.25;;;;;;;15.74;29.13;97053.00;5016135;28;20046;-71
2021/04/16 13:37:37;;;;;;;5.15;3.97;;;;;;;16.49;28.43;97029.91;5024304;28;20043;-72
2021/04/16 13:40:04;;;;;;;4.88;4.30;;;;;;;16.70;27.86;96991.78;5023324;28;20029;-66
2021/04/16 13:42:30;;;;;;;11.77;5.78;;;;;;;16.40;27.37;96825.44;5020429;28;20103;-65
2021/04/16 13:44:55;;;;;;;6.95;4.65;;;;;;;17.01;28.15;96979.56;5022888;28;20030;-64
2021/04/16 13:47:25;;;;;;;6.78;4.22;;;;;;;17.29;26.81;96987.69;5023758;28;20025;-66
2021/04/16 13:49:51;;;;;;;5.93;4.05;;;;;;;18.39;27.35;97032.84;5024591;28;20045;-64
2021/04/16 13:52:17;;;;;;;6.43;4.32;;;;;;;17.54;27.03;96993.84;5024491;28;20061;-66